Time;durP1;ratioP1;P1;durP2;ratioP2;P2;SDS_P1;SDS_P2;PMS_P1;PMS_P2;Temp;Humidity;BMP_temperature;BMP_pressure;BME280_temperature;BME280_humidity;BME280_pressure;Samples;Min_cycle;Max_cycle;Signal;HPM_P1;HPM_P2
2023/04/23 00:01:26;;;;;;;36.50;24.70;;;;;;;;;;5073897;28;20260;-86
2023/04/23 00:03:55;;;;;;;34.40;25.93;;;;;;;;;;5074358;28;20191;-87
2023/04/23 00:06:22;;;;;;;31.47;24.47;;;;;;;;;;5073239;28;20231;-87
2023/04/23 00:08:48;;;;;;;32.03;24.63;;;;;;;;;;5073683;28;20189;-86
2023/04/23 00:11:14;;;;;;;33.37;24.83;;;;;;;;;;5073557;28;20173;-87
2023/04/23 00:13:40;;;;;;;33.63;23.87;;;;;;;;;;5073109;28;20886;-86
2023/04/23 00:16:06;;;;;;;36.20;24.23;;;;;;;;;;5085964;28;20177;-86
2023/04/23 00:18:33;;;;;;;36.47;25.37;;;;;;;;;;5072977;28;20165;-87
2023/04/23 00:20:58;;;;;;;35.27;24.53;;;;;;;;;;5070605;28;20180;-87
2023/04/23 00:23:25;;;;;;;38.73;24.17;;;;;;;;;;5072040;28;20565;-86
2023/04/23 00:25:51;;;;;;;34.00;23.63;;;;;;;;;;5073066;28;20169;-86
2023/04/23 00:28:17;;;;;;;31.00;23.00;;;;;;;;;;5073879;28;20169;-87
2023/04/23 00:30:43;;;;;;;38.93;23.53;;;;;;;;;;5072132;28;20180;-86
2023/04/23 00:33:09;;;;;;;32.23;24.03;;;;;;;;;;5073153;28;20199;-86
2023/04/23 00:35:35;;;;;;;32.77;23.00;;;;;;;;;;5072644;28;20177;-87
2023/04/23 00:38:01;;;;;;;36.37;24.70;;;;;;;;;;5071989;28;20173;-86
2023/04/23 00:40:27;;;;;;;34.20;23.70;;;;;;;;;;5074391;28;20227;-87
2023/04/23 00:42:54;;;;;;;32.03;23.67;;;;;;;;;;5073670;28;20238;-86
2023/04/23 00:45:20;;;;;;;32.23;23.60;;;;;;;;;;5072863;28;20181;-86
2023/04/23 00:47:46;;;;;;;31.80;23.33;;;;;;;;;;5072139;28;20176;-86
2023/04/23 00:50:12;;;;;;;33.47;24.30;;;;;;;;;;5072170;28;20184;-87
2023/04/23 00:52:39;;;;;;;33.63;24.00;;;;;;;;;;5072873;28;20552;-86
2023/04/23 00:55:07;;;;;;;38.97;25.27;;;;;;;;;;5074002;28;20209;-87
2023/04/23 00:57:33;;;;;;;36.70;24.97;;;;;;;;;;5071940;28;20532;-86
2023/04/23 00:59:59;;;;;;;32.67;24.33;;;;;;;;;;5073532;28;20265;-86
2023/04/23 01:02:27;;;;;;;36.40;25.33;;;;;;;;;;5072369;28;20587;-86
2023/04/23 01:04:53;;;;;;;32.53;25.90;;;;;;;;;;5070698;28;20177;-85
2023/04/23 01:07:20;;;;;;;35.50;24.57;;;;;;;;;;5071585;28;20693;-86
2023/04/23 01:09:46;;;;;;;34.50;24.50;;;;;;;;;;5072495;28;20200;-86
2023/04/23 01:12:13;;;;;;;35.03;24.47;;;;;;;;;;5073321;28;20184;-86
2023/04/23 01:14:39;;;;;;;36.07;24.63;;;;;;;;;;5068917;28;20208;-85
2023/04/23 01:17:07;;;;;;;34.20;24.33;;;;;;;;;;5070997;28;20268;-86
2023/04/23 01:19:33;;;;;;;37.13;26.23;;;;;;;;;;5071964;28;20176;-86
2023/04/23 01:22:00;;;;;;;32.40;23.97;;;;;;;;;;5072209;28;20169;-86
2023/04/23 01:24:27;;;;;;;30.20;23.60;;;;;;;;;;5071345;28;20236;-86
2023/04/23 01:26:54;;;;;;;33.57;23.13;;;;;;;;;;5071758;28;20182;-86
2023/04/23 01:29:20;;;;;;;34.97;24.13;;;;;;;;;;5071609;28;20165;-87
2023/04/23 01:31:46;;;;;;;31.33;22.90;;;;;;;;;;5070893;28;20165;-86
2023/04/23 01:34:13;;;;;;;32.10;22.63;;;;;;;;;;5071329;28;20239;-86
2023/04/23 01:36:40;;;;;;;33.47;23.70;;;;;;;;;;5071722;28;20172;-86
2023/04/23 01:39:07;;;;;;;37.40;22.70;;;;;;;;;;5070728;28;20193;-86
2023/04/23 01:41:34;;;;;;;32.77;22.83;;;;;;;;;;5070982;28;20180;-86
2023/04/23 01:44:00;;;;;;;33.43;22.30;;;;;;;;;;5070624;28;20165;-86
2023/04/23 01:46:26;;;;;;;30.97;22.50;;;;;;;;;;5072488;28;20172;-86
2023/04/23 01:48:52;;;;;;;30.47;22.60;;;;;;;;;;5070947;28;20652;-86
2023/04/23 01:51:18;;;;;;;31.70;21.87;;;;;;;;;;5070556;28;20196;-87
2023/04/23 01:53:44;;;;;;;27.77;21.60;;;;;;;;;;5072533;28;20200;-86
2023/04/23 01:56:11;;;;;;;30.27;21.60;;;;;;;;;;5071579;28;20375;-86
2023/04/23 01:58:37;;;;;;;28.83;21.97;;;;;;;;;;5071241;28;20597;-87
2023/04/23 02:01:03;;;;;;;28.00;22.07;;;;;;;;;;5071401;28;20177;-86
2023/04/23 02:03:29;;;;;;;30.10;22.03;;;;;;;;;;5071106;28;20204;-87
2023/04/23 02:05:55;;;;;;;28.13;20.90;;;;;;;;;;5070474;28;20183;-86
2023/04/23 02:08:22;;;;;;;35.03;20.77;;;;;;;;;;5070507;28;20193;-86
2023/04/23 02:10:48;;;;;;;31.07;20.60;;;;;;;;;;5068318;28;20168;-87
2023/04/23 02:13:14;;;;;;;28.00;21.43;;;;;;;;;;5070592;28;20712;-86
2023/04/23 02:15:41;;;;;;;26.07;20.67;;;;;;;;;;5071286;28;20617;-87
2023/04/23 02:18:09;;;;;;;30.37;20.97;;;;;;;;;;5070310;28;20177;-86
2023/04/23 02:20:39;;;;;;;29.50;21.97;;;;;;;;;;5070380;28;20522;-86
2023/04/23 02:23:05;;;;;;;26.40;21.30;;;;;;;;;;5068868;28;20169;-86
2023/04/23 02:25:32;;;;;;;25.13;19.60;;;;;;;;;;5071621;28;20185;-87
2023/04/23 02:28:00;;;;;;;28.57;20.77;;;;;;;;;;5071458;28;20173;-86
2023/04/23 02:30:26;;;;;;;27.77;19.70;;;;;;;;;;5070353;28;20193;-86
2023/04/23 02:32:52;;;;;;;27.43;19.70;;;;;;;;;;5070800;28;20199;-86
2023/04/23 02:35:18;;;;;;;26.77;20.90;;;;;;;;;;5070140;28;20275;-86
2023/04/23 02:37:44;;;;;;;22.43;18.73;;;;;;;;;;5070331;28;20176;-86
2023/04/23 02:40:11;;;;;;;32.50;22.40;;;;;;;;;;5070403;28;20181;-86
2023/04/23 02:42:37;;;;;;;30.17;21.57;;;;;;;;;;5069749;28;20204;-86
2023/04/23 02:45:03;;;;;;;29.10;20.33;;;;;;;;;;5069018;28;20373;-86
2023/04/23 02:47:30;;;;;;;29.47;19.87;;;;;;;;;;5069099;28;20184;-87
2023/04/23 02:49:56;;;;;;;28.17;19.73;;;;;;;;;;5070470;28;20708;-86
2023/04/23 02:52:22;;;;;;;30.17;21.10;;;;;;;;;;5070490;28;20196;-86
2023/04/23 02:54:48;;;;;;;30.63;20.70;;;;;;;;;;5070045;28;20659;-86
2023/04/23 02:57:15;;;;;;;28.57;19.20;;;;;;;;;;5070082;28;20196;-86
2023/04/23 02:59:41;;;;;;;23.07;18.67;;;;;;;;;;5069719;28;20528;-86
2023/04/23 03:02:07;;;;;;;24.93;18.90;;;;;;;;;;5070242;28;20161;-86
2023/04/23 03:04:33;;;;;;;24.40;18.53;;;;;;;;;;5070970;28;20201;-86
2023/04/23 03:06:59;;;;;;;31.10;19.77;;;;;;;;;;5070289;28;20686;-86
2023/04/23 03:09:25;;;;;;;29.33;19.63;;;;;;;;;;5070892;28;20169;-86
2023/04/23 03:11:51;;;;;;;26.57;18.90;;;;;;;;;;5068335;28;20220;-86
2023/04/23 03:14:17;;;;;;;24.23;18.13;;;;;;;;;;5068988;28;20225;-86
2023/04/23 03:16:43;;;;;;;28.17;18.67;;;;;;;;;;5069159;28;20165;-86
2023/04/23 03:19:09;;;;;;;27.40;18.80;;;;;;;;;;5067747;28;20180;-86
2023/04/23 03:21:35;;;;;;;23.13;18.20;;;;;;;;;;5068157;28;20177;-86
2023/04/23 03:24:01;;;;;;;26.30;18.70;;;;;;;;;;5070245;28;20740;-87
2023/04/23 03:26:27;;;;;;;30.67;20.03;;;;;;;;;;5070995;28;20217;-86
2023/04/23 03:28:53;;;;;;;32.07;20.07;;;;;;;;;;5071425;28;20522;-87
2023/04/23 03:31:19;;;;;;;24.53;19.57;;;;;;;;;;5070414;28;20200;-86
2023/04/23 03:33:45;;;;;;;33.67;22.97;;;;;;;;;;5069079;28;20200;-86
2023/04/23 03:36:11;;;;;;;27.97;20.50;;;;;;;;;;5069916;28;20246;-86
2023/04/23 03:38:37;;;;;;;31.07;19.30;;;;;;;;;;5067340;28;20243;-86
2023/04/23 03:41:03;;;;;;;28.50;18.67;;;;;;;;;;5068735;28;20556;-86
2023/04/23 03:43:29;;;;;;;24.47;17.40;;;;;;;;;;5070225;28;20199;-86
2023/04/23 03:45:55;;;;;;;26.63;17.67;;;;;;;;;;5071683;28;20207;-86
2023/04/23 03:48:21;;;;;;;28.53;19.33;;;;;;;;;;5070253;28;20184;-86
2023/04/23 03:50:47;;;;;;;24.40;17.20;;;;;;;;;;5070580;28;20166;-86
2023/04/23 03:53:13;;;;;;;23.03;17.77;;;;;;;;;;5069633;28;20603;-86
2023/04/23 03:55:39;;;;;;;24.83;16.77;;;;;;;;;;5071698;28;20256;-86
2023/04/23 03:58:05;;;;;;;23.67;17.07;;;;;;;;;;5074445;28;20180;-86
2023/04/23 04:00:31;;;;;;;24.90;17.53;;;;;;;;;;5072672;28;20181;-86
2023/04/23 04:02:57;;;;;;;24.83;17.53;;;;;;;;;;5072868;28;20266;-86
2023/04/23 04:05:23;;;;;;;19.93;16.83;;;;;;;;;;5072975;28;20182;-86
2023/04/23 04:07:49;;;;;;;23.80;17.23;;;;;;;;;;5073040;28;20276;-86
2023/04/23 04:10:15;;;;;;;24.87;17.43;;;;;;;;;;5073559;28;20673;-86
2023/04/23 04:12:43;;;;;;;23.63;16.67;;;;;;;;;;5071796;28;20181;-85
2023/04/23 04:15:10;;;;;;;23.27;16.83;;;;;;;;;;5072724;28;20709;-85
2023/04/23 04:17:36;;;;;;;23.03;16.93;;;;;;;;;;5072768;28;20204;-86
2023/04/23 04:20:02;;;;;;;27.67;18.20;;;;;;;;;;5073221;28;20200;-86
2023/04/23 04:22:28;;;;;;;24.70;17.07;;;;;;;;;;5075344;28;20614;-86
2023/04/23 04:24:56;;;;;;;24.43;16.83;;;;;;;;;;5071776;28;20262;-86
2023/04/23 04:27:22;;;;;;;24.50;17.20;;;;;;;;;;5072557;28;20621;-86
2023/04/23 04:29:48;;;;;;;25.23;16.27;;;;;;;;;;5072889;28;20252;-86
2023/04/23 04:32:14;;;;;;;27.07;15.73;;;;;;;;;;5072851;28;20173;-86
2023/04/23 04:34:40;;;;;;;19.97;15.63;;;;;;;;;;5071763;28;20185;-89
2023/04/23 04:37:06;;;;;;;18.97;15.30;;;;;;;;;;5072917;28;20188;-86
2023/04/23 04:39:32;;;;;;;21.80;15.57;;;;;;;;;;5072073;28;20177;-87
2023/04/23 04:41:58;;;;;;;19.40;14.77;;;;;;;;;;5072337;28;20188;-86
2023/04/23 04:44:24;;;;;;;23.63;15.07;;;;;;;;;;5070632;28;20192;-86
2023/04/23 04:46:51;;;;;;;19.87;15.37;;;;;;;;;;5073094;28;20177;-86
2023/04/23 04:49:29;;;;;;;20.23;15.10;;;;;;;;;;5071610;28;20535;-86
2023/04/23 04:51:55;;;;;;;19.97;14.70;;;;;;;;;;5072023;28;20184;-87
2023/04/23 04:54:21;;;;;;;21.40;14.20;;;;;;;;;;5069680;28;20204;-86
2023/04/23 04:56:47;;;;;;;20.53;14.70;;;;;;;;;;5068522;28;20193;-87
2023/04/23 04:59:13;;;;;;;19.20;14.17;;;;;;;;;;5070994;28;20275;-86
2023/04/23 05:01:40;;;;;;;21.30;15.43;;;;;;;;;;5071939;28;20181;-86
2023/04/23 05:04:05;;;;;;;20.07;14.40;;;;;;;;;;5071645;28;20185;-86
2023/04/23 05:06:31;;;;;;;24.00;15.27;;;;;;;;;;5070670;28;20188;-87
2023/04/23 05:09:00;;;;;;;18.87;13.90;;;;;;;;;;5071156;28;20173;-86
2023/04/23 05:11:26;;;;;;;23.23;14.00;;;;;;;;;;5070649;28;20654;-86
2023/04/23 05:13:52;;;;;;;20.13;14.40;;;;;;;;;;5070332;28;20246;-87
2023/04/23 05:16:18;;;;;;;21.60;14.57;;;;;;;;;;5071786;28;20193;-86
2023/04/23 05:18:45;;;;;;;19.00;13.70;;;;;;;;;;5071053;28;20185;-86
2023/04/23 05:21:11;;;;;;;20.67;13.97;;;;;;;;;;5072111;28;20650;-85
2023/04/23 05:23:38;;;;;;;18.13;13.60;;;;;;;;;;5070787;28;20303;-87
2023/04/23 05:26:04;;;;;;;20.23;14.07;;;;;;;;;;5072880;28;20172;-87
2023/04/23 05:28:30;;;;;;;17.70;12.37;;;;;;;;;;5071880;28;20185;-87
2023/04/23 05:30:57;;;;;;;17.50;13.40;;;;;;;;;;5070654;28;20208;-86
2023/04/23 05:33:24;;;;;;;18.93;13.33;;;;;;;;;;5071502;28;20568;-86
2023/04/23 05:35:51;;;;;;;19.73;13.17;;;;;;;;;;5071392;28;20185;-86
2023/04/23 05:38:17;;;;;;;17.03;12.13;;;;;;;;;;5069826;28;20162;-85
2023/04/23 05:40:43;;;;;;;16.67;12.17;;;;;;;;;;5071436;28;20631;-87
2023/04/23 05:43:09;;;;;;;20.77;12.60;;;;;;;;;;5071836;28;20272;-87
2023/04/23 05:45:35;;;;;;;20.27;12.70;;;;;;;;;;5071320;28;20183;-86
2023/04/23 05:48:01;;;;;;;17.63;12.07;;;;;;;;;;5070937;28;20563;-87
2023/04/23 05:50:27;;;;;;;16.67;12.63;;;;;;;;;;5070894;28;20492;-87
2023/04/23 05:52:53;;;;;;;18.43;12.67;;;;;;;;;;5074232;28;20538;-86
2023/04/23 05:55:20;;;;;;;14.93;11.87;;;;;;;;;;5071159;28;20181;-86
2023/04/23 05:57:46;;;;;;;15.70;11.57;;;;;;;;;;5071132;28;20230;-86
2023/04/23 06:00:12;;;;;;;14.53;11.77;;;;;;;;;;5070565;28;20193;-88
2023/04/23 06:02:39;;;;;;;18.07;10.77;;;;;;;;;;5070301;28;20184;-87
2023/04/23 06:05:06;;;;;;;18.37;11.77;;;;;;;;;;5072791;28;20165;-87
2023/04/23 06:07:41;;;;;;;14.97;10.90;;;;;;;;;;5070779;28;20192;-86
2023/04/23 06:10:08;;;;;;;16.77;10.57;;;;;;;;;;5071749;28;20177;-85
2023/04/23 06:12:37;;;;;;;14.57;10.40;;;;;;;;;;5070661;28;20177;-86
2023/04/23 06:15:04;;;;;;;12.10;9.97;;;;;;;;;;5070368;28;20181;-86
2023/04/23 06:17:30;;;;;;;15.10;10.93;;;;;;;;;;5070166;28;20189;-87
2023/04/23 06:19:56;;;;;;;14.53;10.53;;;;;;;;;;5069980;28;20682;-87
2023/04/23 06:22:22;;;;;;;12.17;10.80;;;;;;;;;;5070256;28;20168;-87
2023/04/23 06:24:48;;;;;;;15.30;9.70;;;;;;;;;;5070879;28;20568;-87
2023/04/23 06:27:14;;;;;;;13.10;10.30;;;;;;;;;;5070723;28;20177;-86
2023/04/23 06:29:40;;;;;;;16.73;10.20;;;;;;;;;;5068625;28;20182;-88
2023/04/23 06:32:06;;;;;;;15.60;9.77;;;;;;;;;;5071315;28;20256;-86
2023/04/23 06:34:32;;;;;;;15.17;10.10;;;;;;;;;;5068660;28;20660;-87
2023/04/23 06:36:58;;;;;;;13.63;9.43;;;;;;;;;;5068844;28;20192;-87
2023/04/23 06:39:25;;;;;;;13.30;9.10;;;;;;;;;;5071723;28;20642;-87
2023/04/23 06:41:51;;;;;;;12.77;9.40;;;;;;;;;;5067727;28;20185;-88
2023/04/23 06:44:17;;;;;;;12.10;8.93;;;;;;;;;;5069048;28;20185;-84
2023/04/23 06:46:43;;;;;;;13.37;8.90;;;;;;;;;;5069092;28;20252;-85
2023/04/23 06:49:09;;;;;;;13.67;9.70;;;;;;;;;;5069574;28;21036;-87
2023/04/23 06:51:35;;;;;;;14.33;9.20;;;;;;;;;;5071108;28;20181;-90
2023/04/23 06:54:01;;;;;;;12.60;8.90;;;;;;;;;;5071077;28;20740;-88
2023/04/23 06:56:27;;;;;;;12.20;8.57;;;;;;;;;;5070828;28;20268;-88
2023/04/23 06:58:53;;;;;;;9.13;7.57;;;;;;;;;;5070973;28;20172;-88
2023/04/23 07:01:20;;;;;;;15.83;7.43;;;;;;;;;;5070414;28;20256;-87
2023/04/23 07:03:48;;;;;;;9.33;7.13;;;;;;;;;;5071247;28;20218;-88
2023/04/23 07:06:15;;;;;;;10.87;7.80;;;;;;;;;;5069965;28;20185;-88
2023/04/23 07:08:41;;;;;;;11.07;6.90;;;;;;;;;;5069778;28;20268;-88
2023/04/23 07:11:07;;;;;;;9.37;7.50;;;;;;;;;;5069807;28;20303;-87
2023/04/23 07:13:33;;;;;;;9.40;6.97;;;;;;;;;;5070265;28;20197;-87
2023/04/23 07:15:59;;;;;;;10.27;7.07;;;;;;;;;;5070538;28;20195;-90
2023/04/23 07:18:25;;;;;;;10.40;7.37;;;;;;;;;;5070323;28;20192;-89
2023/04/23 07:20:51;;;;;;;10.83;7.53;;;;;;;;;;5069771;28;20173;-90
2023/04/23 07:23:17;;;;;;;10.90;7.80;;;;;;;;;;5071602;28;20593;-89
2023/04/23 07:25:43;;;;;;;9.27;7.40;;;;;;;;;;5068223;28;20263;-89
2023/04/23 07:28:09;;;;;;;9.80;6.10;;;;;;;;;;5070871;28;20208;-87
2023/04/23 07:30:35;;;;;;;8.93;6.20;;;;;;;;;;5072494;28;20169;-88
2023/04/23 07:33:01;;;;;;;17.13;6.53;;;;;;;;;;5074049;28;20212;-88
